createdAt,value
2018-08-03T00:00:26.458Z,0.00
2018-08-03T00:01:26.483Z,0.00
2018-08-03T00:02:26.513Z,0.00
2018-08-03T00:03:26.535Z,0.00
2018-08-03T00:04:26.548Z,0.00
2018-08-03T00:05:26.575Z,0.00
2018-08-03T00:06:26.600Z,0.00
2018-08-03T00:07:26.626Z,0.00
2018-08-03T00:08:26.652Z,0.00
2018-08-03T00:09:26.678Z,0.00
2018-08-03T00:10:26.705Z,0.00
2018-08-03T00:11:26.732Z,0.00
2018-08-03T00:12:26.756Z,0.00
2018-08-03T00:13:26.772Z,0.00
2018-08-03T00:14:26.796Z,0.00
2018-08-03T00:15:26.822Z,0.00
2018-08-03T00:16:26.848Z,0.00
2018-08-03T00:17:26.876Z,0.00
2018-08-03T00:18:26.903Z,0.00
2018-08-03T00:19:26.927Z,0.00
2018-08-03T00:20:26.952Z,0.00
2018-08-03T00:21:26.977Z,0.00
2018-08-03T00:22:27.004Z,0.00
2018-08-03T00:23:27.017Z,0.00
2018-08-03T00:24:27.055Z,0.00
2018-08-03T00:25:27.068Z,0.00
2018-08-03T00:26:27.094Z,0.00
2018-08-03T00:27:27.120Z,0.00
2018-08-03T00:28:27.146Z,0.00
2018-08-03T00:29:27.172Z,0.00
2018-08-03T00:30:27.199Z,0.00
2018-08-03T00:31:27.223Z,0.00
2018-08-03T00:32:27.250Z,0.00
2018-08-03T00:33:27.264Z,0.00
2018-08-03T00:34:27.292Z,0.00
2018-08-03T00:35:27.316Z,0.00
2018-08-03T00:36:27.342Z,0.00
2018-08-03T00:37:27.368Z,0.00
2018-08-03T00:38:27.397Z,0.00
2018-08-03T00:39:27.420Z,0.00
2018-08-03T00:40:27.446Z,0.00
2018-08-03T00:41:27.474Z,0.00
2018-08-03T00:42:27.498Z,0.00
2018-08-03T00:43:27.511Z,0.00
2018-08-03T00:44:27.537Z,0.00
2018-08-03T00:45:27.562Z,0.00
2018-08-03T00:46:27.601Z,0.00
2018-08-03T00:47:27.614Z,0.00
2018-08-03T00:48:27.640Z,0.00
2018-08-03T00:49:27.665Z,0.00
2018-08-03T00:50:27.691Z,0.00
2018-08-03T00:51:27.718Z,0.00
2018-08-03T00:52:27.743Z,0.00
2018-08-03T00:53:27.759Z,0.00
2018-08-03T00:54:27.794Z,0.00
2018-08-03T00:55:27.810Z,0.00
2018-08-03T00:56:27.835Z,0.00
2018-08-03T00:57:27.862Z,0.00
2018-08-03T00:58:27.887Z,0.00
2018-08-03T00:59:27.913Z,0.00
2018-08-03T01:00:27.939Z,0.00
2018-08-03T01:01:27.966Z,0.00
2018-08-03T01:02:27.991Z,0.00
2018-08-03T01:03:28.004Z,0.00
2018-08-03T01:04:28.030Z,0.00
2018-08-03T01:05:28.056Z,0.00
2018-08-03T01:06:28.082Z,0.00
2018-08-03T01:07:28.107Z,0.00
2018-08-03T01:08:28.134Z,0.00
2018-08-03T01:09:28.160Z,0.00
2018-08-03T01:10:28.185Z,0.00
2018-08-03T01:11:28.225Z,0.00
2018-08-03T01:12:28.226Z,0.00
2018-08-03T01:13:28.251Z,0.00
2018-08-03T01:14:28.281Z,0.00
2018-08-03T01:15:28.307Z,0.00
2018-08-03T01:16:28.329Z,0.00
2018-08-03T01:17:28.356Z,0.00
2018-08-03T01:18:28.381Z,0.00
2018-08-03T01:19:28.410Z,0.00
2018-08-03T01:20:28.422Z,0.00
2018-08-03T01:21:28.446Z,0.00
2018-08-03T01:22:28.474Z,0.00
2018-08-03T01:23:28.510Z,0.00
2018-08-03T01:24:28.525Z,0.00
2018-08-03T01:25:28.549Z,0.00
2018-08-03T01:26:28.575Z,0.00
2018-08-03T01:27:28.601Z,0.00
2018-08-03T01:28:28.627Z,0.00
2018-08-03T01:29:28.643Z,0.00
2018-08-03T01:30:28.667Z,0.00
2018-08-03T01:31:28.695Z,0.00
2018-08-03T01:32:28.722Z,0.00
2018-08-03T01:33:28.745Z,0.00
2018-08-03T01:34:28.771Z,0.00
2018-08-03T01:35:28.797Z,0.00
2018-08-03T01:36:28.823Z,0.00
2018-08-03T01:37:28.850Z,0.00
2018-08-03T01:38:28.862Z,0.00
2018-08-03T01:39:28.901Z,0.00
2018-08-03T01:40:28.913Z,0.00
2018-08-03T01:41:28.940Z,0.00
2018-08-03T01:42:28.966Z,0.00
2018-08-03T01:43:28.991Z,0.00
2018-08-03T01:44:29.018Z,0.00
2018-08-03T01:45:29.057Z,0.00
2018-08-03T01:46:29.069Z,0.00
2018-08-03T01:47:29.085Z,0.00
2018-08-03T01:48:29.110Z,0.00
2018-08-03T01:49:29.136Z,0.00
2018-08-03T01:50:29.161Z,0.00
2018-08-03T01:51:29.190Z,0.00
2018-08-03T01:52:29.216Z,0.00
2018-08-03T01:53:29.240Z,0.00
2018-08-03T01:54:29.265Z,0.00
2018-08-03T01:55:29.279Z,0.00
2018-08-03T01:56:29.303Z,0.00
2018-08-03T01:57:29.330Z,0.00
2018-08-03T01:58:29.355Z,0.00
2018-08-03T01:59:29.389Z,0.00
2018-08-03T02:00:29.411Z,0.00
2018-08-03T02:01:29.433Z,0.00
2018-08-03T02:02:29.459Z,0.00
2018-08-03T02:03:29.478Z,0.00
2018-08-03T02:04:29.500Z,0.00
2018-08-03T02:05:29.526Z,0.00
2018-08-03T02:06:29.553Z,0.00
2018-08-03T02:07:29.578Z,0.00
2018-08-03T02:08:29.603Z,0.00
2018-08-03T02:09:29.633Z,0.00
2018-08-03T02:10:29.656Z,0.00
2018-08-03T02:11:29.685Z,0.00
2018-08-03T02:12:29.694Z,0.00
2018-08-03T02:13:29.733Z,0.00
2018-08-03T02:14:29.749Z,0.00
2018-08-03T02:15:29.772Z,0.00
2018-08-03T02:16:29.798Z,0.00
2018-08-03T02:17:29.823Z,0.00
2018-08-03T02:18:29.849Z,0.00
2018-08-03T02:19:29.875Z,0.00
2018-08-03T02:20:29.902Z,0.00
2018-08-03T02:21:29.928Z,0.00
2018-08-03T02:22:29.941Z,0.00
2018-08-03T02:23:29.968Z,0.00
2018-08-03T02:24:29.995Z,0.00
2018-08-03T02:25:30.020Z,0.00
2018-08-03T02:26:30.046Z,0.00
2018-08-03T02:27:30.072Z,0.00
2018-08-03T02:28:30.098Z,0.00
2018-08-03T02:29:30.123Z,0.00
2018-08-03T02:30:30.150Z,0.00
2018-08-03T02:31:30.164Z,0.00
2018-08-03T02:32:30.188Z,0.00
2018-08-03T02:33:30.215Z,0.00
2018-08-03T02:34:30.239Z,0.00
2018-08-03T02:35:30.267Z,0.00
2018-08-03T02:36:30.292Z,0.00
2018-08-03T02:37:30.319Z,0.00
2018-08-03T02:38:30.344Z,0.00
2018-08-03T02:39:30.380Z,0.00
2018-08-03T02:40:30.395Z,0.00
2018-08-03T02:41:30.411Z,0.00
2018-08-03T02:42:30.439Z,0.00
2018-08-03T02:43:30.462Z,0.00
2018-08-03T02:44:30.490Z,0.00
2018-08-03T02:45:30.516Z,0.00
2018-08-03T02:46:30.543Z,0.00
2018-08-03T02:47:30.565Z,0.00
2018-08-03T02:48:30.591Z,0.00
2018-08-03T02:49:30.617Z,0.00
2018-08-03T02:50:30.646Z,0.00
2018-08-03T02:51:30.669Z,4.00
2018-08-03T02:52:30.682Z,4.00
2018-08-03T02:53:30.707Z,4.00
2018-08-03T02:54:30.734Z,0.00
2018-08-03T02:55:30.759Z,4.00
2018-08-03T02:56:30.798Z,4.00
2018-08-03T02:57:30.812Z,4.00
2018-08-03T02:58:30.837Z,8.00
2018-08-03T02:59:30.863Z,8.00
2018-08-03T03:00:30.894Z,8.00
2018-08-03T03:01:30.915Z,12.00
2018-08-03T03:02:30.930Z,12.00
2018-08-03T03:03:30.955Z,12.00
2018-08-03T03:04:30.996Z,12.00
2018-08-03T03:05:31.008Z,16.00
2018-08-03T03:06:31.034Z,20.00
2018-08-03T03:07:31.070Z,24.00
2018-08-03T03:08:31.087Z,24.00
2018-08-03T03:09:31.113Z,28.00
2018-08-03T03:10:31.137Z,32.00
2018-08-03T03:11:31.163Z,36.00
2018-08-03T03:12:31.180Z,44.00
2018-08-03T03:13:31.204Z,44.00
2018-08-03T03:14:31.227Z,52.00
2018-08-03T03:15:31.258Z,60.00
2018-08-03T03:16:31.279Z,68.00
2018-08-03T03:17:31.305Z,80.00
2018-08-03T03:18:31.331Z,88.00
2018-08-03T03:19:31.395Z,96.00
2018-08-03T03:20:31.383Z,108.00
2018-08-03T03:21:31.410Z,120.00
2018-08-03T03:22:31.434Z,132.00
2018-08-03T03:23:31.450Z,148.00
2018-08-03T03:24:31.479Z,164.00
2018-08-03T03:25:31.506Z,176.00
2018-08-03T03:26:31.527Z,188.00
2018-08-03T03:27:31.553Z,200.00
2018-08-03T03:28:31.579Z,204.00
2018-08-03T03:29:31.606Z,208.00
2018-08-03T03:30:31.630Z,216.00
2018-08-03T03:31:31.657Z,224.00
2018-08-03T03:32:31.686Z,232.00
2018-08-03T03:33:31.742Z,240.00
2018-08-03T03:34:31.721Z,248.00
2018-08-03T03:35:31.746Z,260.00
2018-08-03T03:36:31.773Z,284.00
2018-08-03T03:37:31.798Z,304.00
2018-08-03T03:38:31.827Z,332.00
2018-08-03T03:39:31.869Z,364.00
2018-08-03T03:40:31.876Z,392.00
2018-08-03T03:41:31.893Z,424.00
2018-08-03T03:42:31.917Z,460.00
2018-08-03T03:43:31.943Z,488.00
2018-08-03T03:44:31.969Z,520.00
2018-08-03T03:45:32.050Z,548.00
2018-08-03T03:46:32.021Z,576.00
2018-08-03T03:47:32.047Z,600.00
2018-08-03T03:48:32.073Z,632.00
2018-08-03T03:49:32.098Z,668.00
2018-08-03T03:50:32.112Z,708.00
2018-08-03T03:51:32.137Z,740.00
2018-08-03T03:52:32.163Z,768.00
2018-08-03T03:53:32.202Z,792.00
2018-08-03T03:54:32.215Z,832.00
2018-08-03T03:55:32.254Z,876.00
2018-08-03T03:56:32.273Z,928.00
2018-08-03T03:57:32.295Z,980.00
2018-08-03T03:58:32.318Z,1032.00
2018-08-03T03:59:32.334Z,1072.00
2018-08-03T04:00:32.360Z,1108.00
2018-08-03T04:01:32.385Z,1140.00
2018-08-03T04:02:32.411Z,1176.00
2018-08-03T04:03:32.437Z,1224.00
2018-08-03T04:04:32.462Z,1272.00
2018-08-03T04:05:32.489Z,1332.00
2018-08-03T04:06:32.514Z,1396.00
2018-08-03T04:07:32.541Z,1464.00
2018-08-03T04:08:32.554Z,1528.00
2018-08-03T04:09:32.580Z,1604.00
2018-08-03T04:10:32.609Z,1672.00
2018-08-03T04:11:32.631Z,1744.00
2018-08-03T04:12:32.657Z,1792.00
2018-08-03T04:13:32.683Z,1860.00
2018-08-03T04:14:32.711Z,1940.00
2018-08-03T04:15:32.735Z,1996.00
2018-08-03T04:16:32.752Z,2048.00
2018-08-03T04:17:32.775Z,2112.00
2018-08-03T04:18:32.802Z,2148.00
2018-08-03T04:19:32.827Z,2156.00
2018-08-03T04:20:32.853Z,2136.00
2018-08-03T04:21:32.881Z,2116.00
2018-08-03T04:22:32.905Z,2108.00
2018-08-03T04:23:32.931Z,2116.00
2018-08-03T04:24:32.943Z,2132.00
2018-08-03T04:25:33.012Z,2156.00
2018-08-03T04:26:32.995Z,2184.00
2018-08-03T04:27:33.021Z,2216.00
2018-08-03T04:28:33.047Z,2252.00
2018-08-03T04:29:33.074Z,2288.00
2018-08-03T04:30:33.100Z,2324.00
2018-08-03T04:31:33.124Z,2368.00
2018-08-03T04:32:33.139Z,2432.00
2018-08-03T04:33:33.165Z,2540.00
2018-08-03T04:34:33.191Z,2684.00
2018-08-03T04:35:33.217Z,2860.00
2018-08-03T04:36:33.243Z,3048.00
2018-08-03T04:37:33.269Z,3200.00
2018-08-03T04:38:33.295Z,3328.00
2018-08-03T04:39:33.310Z,3440.00
2018-08-03T04:40:33.333Z,3540.00
2018-08-03T04:41:33.359Z,3656.00
2018-08-03T04:42:33.402Z,3784.00
2018-08-03T04:43:33.411Z,3900.00
2018-08-03T04:44:33.441Z,4004.00
2018-08-03T04:45:33.467Z,4096.00
2018-08-03T04:46:33.489Z,4200.00
2018-08-03T04:47:33.503Z,4308.00
2018-08-03T04:48:33.564Z,4428.00
2018-08-03T04:49:33.555Z,4548.00
2018-08-03T04:50:33.580Z,4672.00
2018-08-03T04:51:33.607Z,4792.00
2018-08-03T04:52:33.636Z,4908.00
2018-08-03T04:53:33.659Z,5088.00
2018-08-03T04:54:33.715Z,5388.00
2018-08-03T04:55:33.697Z,5816.00
2018-08-03T04:56:33.724Z,6124.00
2018-08-03T04:57:33.749Z,6476.00
2018-08-03T04:58:33.775Z,6888.00
2018-08-03T04:59:33.804Z,6688.00
2018-08-03T05:00:33.840Z,6204.00
2018-08-03T05:01:33.853Z,5760.00
2018-08-03T05:02:33.879Z,5524.00
2018-08-03T05:03:33.895Z,5468.00
2018-08-03T05:04:33.924Z,5444.00
2018-08-03T05:05:33.945Z,5376.00
2018-08-03T05:06:33.971Z,5268.00
2018-08-03T05:07:33.997Z,5156.00
2018-08-03T05:08:34.023Z,5076.00
2018-08-03T05:09:34.051Z,5028.00
2018-08-03T05:10:34.075Z,5040.00
2018-08-03T05:11:34.101Z,5112.00
2018-08-03T05:12:34.364Z,5232.00
2018-08-03T05:13:34.141Z,5400.00
2018-08-03T05:14:34.165Z,5624.00
2018-08-03T05:15:34.273Z,5892.00
2018-08-03T05:16:34.217Z,6140.00
2018-08-03T05:17:34.293Z,6332.00
2018-08-03T05:18:34.269Z,6444.00
2018-08-03T05:19:34.296Z,6544.00
2018-08-03T05:20:34.321Z,6728.00
2018-08-03T05:21:34.351Z,7008.00
2018-08-03T05:22:34.361Z,7332.00
2018-08-03T05:23:34.389Z,7708.00
2018-08-03T05:24:34.418Z,8020.00
2018-08-03T05:25:34.439Z,8332.00
2018-08-03T05:26:34.465Z,8700.00
2018-08-03T05:27:34.493Z,9076.00
2018-08-03T05:28:34.519Z,9368.00
2018-08-03T05:29:34.544Z,9572.00
2018-08-03T05:30:34.568Z,9764.00
2018-08-03T05:31:34.595Z,10076.00
2018-08-03T05:32:34.621Z,10600.00
2018-08-03T05:33:34.647Z,11288.00
2018-08-03T05:34:34.673Z,11812.00
2018-08-03T05:35:34.717Z,11984.00
2018-08-03T05:36:34.711Z,11924.00
2018-08-03T05:37:34.738Z,11840.00
2018-08-03T05:38:34.764Z,11756.00
2018-08-03T05:39:34.789Z,11672.00
2018-08-03T05:40:34.817Z,11652.00
2018-08-03T05:41:34.841Z,11668.00
2018-08-03T05:42:34.897Z,11456.00
2018-08-03T05:43:34.896Z,11248.00
2018-08-03T05:44:34.918Z,10920.00
2018-08-03T05:45:35.003Z,10648.00
2018-08-03T05:46:34.970Z,10516.00
2018-08-03T05:47:34.996Z,10256.00
2018-08-03T05:48:35.023Z,10132.00
2018-08-03T05:49:35.064Z,10060.00
2018-08-03T05:50:35.076Z,9944.00
2018-08-03T05:51:35.101Z,9888.00
2018-08-03T05:52:35.126Z,9872.00
2018-08-03T05:53:35.153Z,9884.00
2018-08-03T05:54:35.178Z,9996.00
2018-08-03T05:55:35.204Z,10160.00
2018-08-03T05:56:35.233Z,10476.00
2018-08-03T05:57:35.258Z,11024.00
2018-08-03T05:58:35.283Z,11784.00
2018-08-03T05:59:35.308Z,12476.00
2018-08-03T06:00:35.334Z,12792.00
2018-08-03T06:01:35.359Z,12904.00
2018-08-03T06:02:35.385Z,13016.00
2018-08-03T06:03:35.414Z,13168.00
2018-08-03T06:04:35.450Z,13376.00
2018-08-03T06:05:35.463Z,13172.00
2018-08-03T06:06:35.491Z,12904.00
2018-08-03T06:07:35.515Z,12592.00
2018-08-03T06:08:35.541Z,12228.00
2018-08-03T06:09:35.605Z,12224.00
2018-08-03T06:10:35.593Z,13848.00
2018-08-03T06:11:35.620Z,14184.00
2018-08-03T06:12:35.645Z,12468.00
2018-08-03T06:13:35.671Z,11356.00
2018-08-03T06:14:35.696Z,11000.00
2018-08-03T06:15:35.722Z,11152.00
2018-08-03T06:16:35.748Z,11436.00
2018-08-03T06:17:35.776Z,11892.00
2018-08-03T06:18:35.854Z,12512.00
2018-08-03T06:19:35.840Z,13304.00
2018-08-03T06:20:35.863Z,14752.00
2018-08-03T06:21:35.879Z,16940.00
2018-08-03T06:22:35.905Z,17664.00
2018-08-03T06:23:35.932Z,17312.00
2018-08-03T06:24:35.969Z,16512.00
2018-08-03T06:25:35.983Z,15404.00
2018-08-03T06:26:36.022Z,15952.00
2018-08-03T06:27:36.048Z,15668.00
2018-08-03T06:28:36.173Z,16364.00
2018-08-03T06:29:36.168Z,15828.00
2018-08-03T06:30:36.125Z,19168.00
2018-08-03T06:31:36.152Z,18592.00
2018-08-03T06:32:36.177Z,18336.00
2018-08-03T06:33:36.203Z,18068.00
2018-08-03T06:34:36.230Z,28480.00
2018-08-03T06:35:36.254Z,35232.00
2018-08-03T06:36:36.283Z,33440.00
2018-08-03T06:37:36.307Z,41504.00
2018-08-03T06:38:36.332Z,40096.00
2018-08-03T06:39:36.359Z,20480.00
2018-08-03T06:40:36.385Z,19520.00
2018-08-03T06:41:36.422Z,29024.00
2018-08-03T06:42:36.448Z,31360.00
2018-08-03T06:43:36.474Z,36448.00
2018-08-03T06:44:36.499Z,35872.00
2018-08-03T06:45:36.525Z,34400.00
2018-08-03T06:46:36.553Z,34272.00
2018-08-03T06:47:36.591Z,32768.00
2018-08-03T06:48:36.621Z,31936.00
2018-08-03T06:49:36.644Z,32224.00
2018-08-03T06:50:36.669Z,33024.00
2018-08-03T06:51:36.707Z,32160.00
2018-08-03T06:52:36.732Z,29120.00
2018-08-03T06:53:36.796Z,27968.00
2018-08-03T06:54:36.784Z,27200.00
2018-08-03T06:55:36.826Z,28160.00
2018-08-03T06:56:36.850Z,30400.00
2018-08-03T06:57:36.927Z,31168.00
2018-08-03T06:58:36.926Z,31808.00
2018-08-03T06:59:36.943Z,34016.00
2018-08-03T07:00:36.969Z,36288.00
2018-08-03T07:01:37.005Z,38048.00
2018-08-03T07:02:37.031Z,39520.00
2018-08-03T07:03:37.056Z,41408.00
2018-08-03T07:04:37.094Z,43296.00
2018-08-03T07:05:37.122Z,45120.00
2018-08-03T07:06:37.147Z,45792.00
2018-08-03T07:07:37.185Z,47008.00
2018-08-03T07:08:37.223Z,48160.00
2018-08-03T07:09:37.249Z,47872.00
2018-08-03T07:10:37.276Z,49440.00
2018-08-03T07:11:37.301Z,49120.00
2018-08-03T07:12:37.342Z,51168.00
2018-08-03T07:13:37.366Z,52512.00
2018-08-03T07:14:37.471Z,51008.00
2018-08-03T07:15:37.435Z,50848.00
2018-08-03T07:16:37.469Z,51424.00
2018-08-03T07:17:37.495Z,49760.00
2018-08-03T07:18:37.532Z,51520.00
2018-08-03T07:19:37.559Z,54176.00
2018-08-03T07:20:37.648Z,53632.00
2018-08-03T07:21:37.625Z,54688.00
2018-08-03T07:22:37.662Z,55424.00
2018-08-03T07:23:37.688Z,55520.00
2018-08-03T07:24:37.727Z,56128.00
2018-08-03T07:25:37.752Z,55424.00
2018-08-03T07:26:37.790Z,55296.00
2018-08-03T07:27:37.817Z,56608.00
2018-08-03T07:28:37.855Z,58816.00
2018-08-03T07:29:37.892Z,58880.00
2018-08-03T07:30:37.919Z,56384.00
2018-08-03T07:31:38.013Z,58336.00
2018-08-03T07:32:37.984Z,59872.00
2018-08-03T07:33:38.022Z,59104.00
2018-08-03T07:34:38.062Z,58368.00
2018-08-03T07:35:38.088Z,57440.00
2018-08-03T07:36:38.125Z,57088.00
2018-08-03T07:37:38.163Z,56608.00
2018-08-03T07:38:38.190Z,56288.00
2018-08-03T07:39:38.228Z,57696.00
2018-08-03T07:40:38.253Z,57760.00
2018-08-03T07:41:38.293Z,55488.00
2018-08-03T07:42:38.332Z,57664.00
2018-08-03T07:43:38.369Z,60064.00
2018-08-03T07:44:38.449Z,60000.00
2018-08-03T07:45:38.433Z,60960.00
2018-08-03T07:46:38.471Z,61376.00
2018-08-03T07:47:38.498Z,61312.00
2018-08-03T07:48:38.535Z,61152.00
2018-08-03T07:49:38.574Z,59680.00
2018-08-03T07:50:38.612Z,62592.00
2018-08-03T07:51:38.639Z,64512.00
2018-08-03T07:52:38.712Z,62464.00
2018-08-03T07:53:38.718Z,62016.00
2018-08-03T07:54:38.741Z,64576.00
2018-08-03T07:55:38.780Z,64960.00
2018-08-03T07:56:38.818Z,62784.00
2018-08-03T07:57:38.858Z,61312.00
2018-08-03T07:58:38.886Z,60512.00
2018-08-03T07:59:38.922Z,61472.00
2018-08-03T08:00:38.960Z,60800.00
2018-08-03T08:01:38.998Z,60352.00
2018-08-03T08:02:39.026Z,62624.00
2018-08-03T08:03:39.063Z,62272.00
2018-08-03T08:04:39.101Z,61728.00
2018-08-03T08:05:39.141Z,62656.00
2018-08-03T08:06:39.177Z,63776.00
2018-08-03T08:07:39.218Z,63168.00
2018-08-03T08:08:39.257Z,63680.00
2018-08-03T08:09:39.322Z,64160.00
2018-08-03T08:10:39.319Z,64448.00
2018-08-03T08:11:39.357Z,67392.00
2018-08-03T08:12:39.397Z,67936.00
2018-08-03T08:13:39.435Z,66560.00
2018-08-03T08:14:39.464Z,66304.00
2018-08-03T08:15:39.530Z,67104.00
2018-08-03T08:16:39.537Z,65568.00
2018-08-03T08:17:39.577Z,64800.00
2018-08-03T08:18:39.613Z,65696.00
2018-08-03T08:19:39.652Z,64576.00
2018-08-03T08:20:39.691Z,62784.00
2018-08-03T08:21:39.730Z,63040.00
2018-08-03T08:22:39.780Z,64160.00
2018-08-03T08:23:39.794Z,62720.00
2018-08-03T08:24:39.838Z,61696.00
2018-08-03T08:25:39.870Z,62784.00
2018-08-03T08:26:39.910Z,63072.00
2018-08-03T08:27:39.948Z,62112.00
2018-08-03T08:28:39.987Z,61440.00
2018-08-03T08:29:40.038Z,64576.00
2018-08-03T08:30:40.065Z,66560.00
2018-08-03T08:31:40.139Z,66656.00
2018-08-03T08:32:40.127Z,59264.00
2018-08-03T08:33:40.166Z,31552.00
2018-08-03T08:34:40.204Z,12212.00
2018-08-03T08:35:40.243Z,22304.00
2018-08-03T08:36:40.280Z,50976.00
2018-08-03T08:37:40.307Z,68096.00
2018-08-03T08:38:40.347Z,68416.00
2018-08-03T08:39:40.387Z,67712.00
2018-08-03T08:40:40.423Z,68000.00
2018-08-03T08:41:40.448Z,65984.00
2018-08-03T08:42:40.490Z,64352.00
2018-08-03T08:43:40.590Z,67520.00
2018-08-03T08:44:40.557Z,69760.00
2018-08-03T08:45:40.591Z,69376.00
2018-08-03T08:46:40.629Z,69440.00
2018-08-03T08:47:40.656Z,69280.00
2018-08-03T08:48:40.692Z,69440.00
2018-08-03T08:49:40.731Z,56288.00
2018-08-03T08:50:40.774Z,26880.00
2018-08-03T08:51:40.795Z,15696.00
2018-08-03T08:52:40.834Z,42208.00
2018-08-03T08:53:40.860Z,68480.00
2018-08-03T08:54:40.910Z,69632.00
2018-08-03T08:55:40.937Z,70976.00
2018-08-03T08:56:40.965Z,72128.00
2018-08-03T08:57:41.015Z,71136.00
2018-08-03T08:58:41.028Z,71520.00
2018-08-03T08:59:41.084Z,73696.00
2018-08-03T09:00:41.103Z,73056.00
2018-08-03T09:01:41.129Z,70496.00
2018-08-03T09:02:41.168Z,69184.00
2018-08-03T09:03:41.207Z,70144.00
2018-08-03T09:04:41.245Z,71904.00
2018-08-03T09:05:41.272Z,71840.00
2018-08-03T09:06:41.313Z,75648.00
2018-08-03T09:07:41.406Z,76512.00
2018-08-03T09:08:41.408Z,74016.00
2018-08-03T09:09:41.401Z,75168.00
2018-08-03T09:10:41.438Z,75232.00
2018-08-03T09:11:41.465Z,74304.00
2018-08-03T09:12:41.516Z,76960.00
2018-08-03T09:13:41.542Z,79552.00
2018-08-03T09:14:41.568Z,82304.00
2018-08-03T09:15:41.607Z,82528.00
2018-08-03T09:16:41.636Z,83296.00
2018-08-03T09:17:41.670Z,83072.00
2018-08-03T09:18:41.729Z,83968.00
2018-08-03T09:19:41.743Z,83936.00
2018-08-03T09:20:41.774Z,85632.00
2018-08-03T09:21:41.812Z,85728.00
2018-08-03T09:22:41.838Z,83936.00
2018-08-03T09:23:41.879Z,82944.00
2018-08-03T09:24:41.973Z,82880.00
2018-08-03T09:25:41.942Z,81728.00
2018-08-03T09:26:41.993Z,82368.00
2018-08-03T09:27:42.018Z,82432.00
2018-08-03T09:28:42.045Z,81504.00
2018-08-03T09:29:42.082Z,83200.00
2018-08-03T09:30:42.121Z,59168.00
2018-08-03T09:31:42.148Z,20768.00
2018-08-03T09:32:42.185Z,19488.00
2018-08-03T09:33:42.224Z,56832.00
2018-08-03T09:34:42.262Z,84000.00
2018-08-03T09:35:42.287Z,84896.00
2018-08-03T09:36:42.327Z,83776.00
2018-08-03T09:37:42.364Z,84128.00
2018-08-03T09:38:42.390Z,86208.00
2018-08-03T09:39:42.429Z,87360.00
2018-08-03T09:40:42.480Z,87072.00
2018-08-03T09:41:42.494Z,84928.00
2018-08-03T09:42:42.531Z,79424.00
2018-08-03T09:43:42.570Z,72992.00
2018-08-03T09:44:42.609Z,69920.00
2018-08-03T09:45:42.646Z,66048.00
2018-08-03T09:46:42.672Z,60800.00
2018-08-03T09:47:42.712Z,56128.00
2018-08-03T09:48:42.751Z,52704.00
2018-08-03T09:49:42.791Z,46624.00
2018-08-03T09:50:42.827Z,41984.00
2018-08-03T09:51:42.853Z,37952.00
2018-08-03T09:52:42.894Z,33504.00
2018-08-03T09:53:42.942Z,31584.00
2018-08-03T09:54:42.969Z,27520.00
2018-08-03T09:55:43.007Z,37984.00
2018-08-03T09:56:43.050Z,63200.00
2018-08-03T09:57:43.073Z,80384.00
2018-08-03T09:58:43.109Z,82848.00
2018-08-03T09:59:43.149Z,80256.00
2018-08-03T10:00:43.188Z,55968.00
2018-08-03T10:01:43.264Z,32448.00
2018-08-03T10:02:43.263Z,43072.00
2018-08-03T10:03:43.302Z,73472.00
2018-08-03T10:04:43.339Z,86336.00
2018-08-03T10:05:43.379Z,82816.00
2018-08-03T10:06:43.416Z,61376.00
2018-08-03T10:07:43.459Z,31232.00
2018-08-03T10:08:43.487Z,13364.00
2018-08-03T10:09:43.560Z,19264.00
2018-08-03T10:10:43.557Z,42592.00
2018-08-03T10:11:43.596Z,66848.00
2018-08-03T10:12:43.654Z,78144.00
2018-08-03T10:13:43.673Z,80512.00
2018-08-03T10:14:43.711Z,80960.00
2018-08-03T10:15:43.763Z,80672.00
2018-08-03T10:16:43.789Z,79360.00
2018-08-03T10:17:43.830Z,78336.00
2018-08-03T10:18:43.865Z,80192.00
2018-08-03T10:19:43.904Z,80416.00
2018-08-03T10:20:43.943Z,80096.00
2018-08-03T10:21:43.980Z,75680.00
2018-08-03T10:22:44.020Z,76768.00
2018-08-03T10:23:44.073Z,78016.00
2018-08-03T10:24:44.108Z,81184.00
2018-08-03T10:25:44.147Z,82144.00
2018-08-03T10:26:44.190Z,83232.00
2018-08-03T10:27:44.225Z,82560.00
2018-08-03T10:28:44.262Z,80800.00
2018-08-03T10:29:44.381Z,80960.00
2018-08-03T10:30:44.355Z,83168.00
2018-08-03T10:31:44.390Z,83872.00
2018-08-03T10:32:44.428Z,84000.00
2018-08-03T10:33:44.480Z,83104.00
2018-08-03T10:34:44.525Z,83200.00
2018-08-03T10:35:44.557Z,82624.00
2018-08-03T10:36:44.596Z,83328.00
2018-08-03T10:37:44.645Z,83360.00
2018-08-03T10:38:44.684Z,82304.00
2018-08-03T10:39:44.723Z,80352.00
2018-08-03T10:40:44.774Z,80160.00
2018-08-03T10:41:44.813Z,79296.00
2018-08-03T10:42:44.918Z,78784.00
2018-08-03T10:43:44.901Z,78720.00
2018-08-03T10:44:44.939Z,79136.00
2018-08-03T10:45:44.991Z,78464.00
2018-08-03T10:46:45.029Z,77984.00
2018-08-03T10:47:45.068Z,80448.00
2018-08-03T10:48:45.134Z,81888.00
2018-08-03T10:49:45.169Z,80192.00
2018-08-03T10:50:45.207Z,78752.00
2018-08-03T10:51:45.247Z,78336.00
2018-08-03T10:52:45.284Z,79808.00
2018-08-03T10:53:45.337Z,80000.00
2018-08-03T10:54:45.374Z,77856.00
2018-08-03T10:55:45.426Z,76160.00
2018-08-03T10:56:45.464Z,78464.00
2018-08-03T10:57:45.514Z,79200.00
2018-08-03T10:58:45.554Z,78464.00
2018-08-03T10:59:45.592Z,78080.00
2018-08-03T11:00:45.654Z,79008.00
2018-08-03T11:01:45.735Z,78304.00
2018-08-03T11:02:45.732Z,78496.00
2018-08-03T11:03:45.770Z,78752.00
2018-08-03T11:04:45.820Z,81088.00
2018-08-03T11:05:45.861Z,84320.00
2018-08-03T11:06:45.964Z,85856.00
2018-08-03T11:07:45.953Z,84000.00
2018-08-03T11:08:46.000Z,78720.00
2018-08-03T11:09:46.039Z,76544.00
2018-08-03T11:10:46.090Z,73920.00
2018-08-03T11:11:46.127Z,74176.00
2018-08-03T11:12:46.178Z,80576.00
2018-08-03T11:13:46.280Z,85600.00
2018-08-03T11:14:46.268Z,84192.00
2018-08-03T11:15:46.307Z,82976.00
2018-08-03T11:16:46.356Z,81568.00
2018-08-03T11:17:46.396Z,81312.00
2018-08-03T11:18:46.447Z,81696.00
2018-08-03T11:19:46.489Z,82304.00
2018-08-03T11:20:46.537Z,81056.00
2018-08-03T11:21:46.576Z,79104.00
2018-08-03T11:22:46.626Z,78208.00
2018-08-03T11:23:46.677Z,79264.00
2018-08-03T11:24:46.714Z,81376.00
2018-08-03T11:25:46.765Z,81440.00
2018-08-03T11:26:46.805Z,81856.00
2018-08-03T11:27:46.856Z,82464.00
2018-08-03T11:28:46.894Z,83296.00
2018-08-03T11:29:46.978Z,83872.00
2018-08-03T11:30:46.983Z,84448.00
2018-08-03T11:31:47.034Z,81856.00
2018-08-03T11:32:47.074Z,80000.00
2018-08-03T11:33:47.123Z,81856.00
2018-08-03T11:34:47.175Z,83776.00
2018-08-03T11:35:47.219Z,82752.00
2018-08-03T11:36:47.267Z,79712.00
2018-08-03T11:37:47.303Z,79200.00
2018-08-03T11:38:47.352Z,80864.00
2018-08-03T11:39:47.395Z,80096.00
2018-08-03T11:40:47.500Z,80224.00
2018-08-03T11:41:47.482Z,84128.00
2018-08-03T11:42:47.532Z,86272.00
2018-08-03T11:43:47.582Z,83872.00
2018-08-03T11:44:47.622Z,85376.00
2018-08-03T11:45:47.673Z,86336.00
2018-08-03T11:46:47.711Z,86112.00
2018-08-03T11:47:47.762Z,84000.00
2018-08-03T11:48:47.801Z,83936.00
2018-08-03T11:49:47.856Z,84576.00
2018-08-03T11:50:47.892Z,86048.00
2018-08-03T11:51:47.940Z,85920.00
2018-08-03T11:52:47.980Z,84096.00
2018-08-03T11:53:48.031Z,82432.00
2018-08-03T11:54:48.081Z,82528.00
2018-08-03T11:55:48.121Z,81728.00
2018-08-03T11:56:48.170Z,85152.00
2018-08-03T11:57:48.209Z,88320.00
2018-08-03T11:58:48.261Z,88672.00
2018-08-03T11:59:48.310Z,87712.00
2018-08-03T12:00:48.390Z,85856.00
2018-08-03T12:01:48.436Z,84704.00
2018-08-03T12:02:48.439Z,85088.00
2018-08-03T12:03:48.489Z,85952.00
2018-08-03T12:04:48.527Z,86112.00
2018-08-03T12:05:48.577Z,87008.00
2018-08-03T12:06:48.619Z,86304.00
2018-08-03T12:07:48.669Z,86144.00
2018-08-03T12:08:48.706Z,87200.00
2018-08-03T12:09:48.757Z,86720.00
2018-08-03T12:10:48.808Z,85536.00
2018-08-03T12:11:48.849Z,83552.00
2018-08-03T12:12:48.897Z,80608.00